UAAT weather

Ak Bashat Airport
Ak Bashat village, Chuy Region, Kyrgyzstan

Public forecast

Using degrees Celsius for public forecast. Weather courtesy of forecast.io.

METAR (pilot weather report)

Closest report is Manas International Airport, 39.8 nm (73.7 km) ENE. Retrieved 2019/03/20 12:30 UTC (28 minutes ago):

UCFM 201230Z 03005MPS CAVOK 15/00 Q1014 R08/09//95 NOSIG

TAF (pilot weather forecast)

Closest forecast is Manas International Airport, 39.8 nm (73.7 km) ENE. Retrieved 2019/03/20 12:00 UTC (58 minutes ago):

TAF UCFM 201053Z 2012/2112 12003G08MPS 6000 SCT050 TEMPO 2014/2020 06003G08MPS 1500 FU FEW005 SCT030 TEMPO 2020/2102 1500 BR FU FEW005 SCT030 BECMG 2105/2106 34003G08MPS 9999 SCT050CB